Time;durP1;ratioP1;P1;durP2;ratioP2;P2;SDS_P1;SDS_P2;PMS_P1;PMS_P2;Temp;Humidity;BMP_temperature;BMP_pressure;BME280_temperature;BME280_humidity;BME280_pressure;Samples;Min_cycle;Max_cycle;Signal;HPM_P1;HPM_P2
2023/12/12 00:00:19;;;;;;;35.00;15.82;;;;;;;12.83;100.00;100366.34;5134670;27;20058;-61
2023/12/12 00:02:47;;;;;;;34.38;17.00;;;;;;;12.82;100.00;100365.50;5115968;27;20040;-61
2023/12/12 00:05:14;;;;;;;32.42;17.15;;;;;;;12.92;100.00;100348.53;5108455;28;20051;-62
2023/12/12 00:07:41;;;;;;;33.05;17.63;;;;;;;12.87;100.00;100350.66;5104331;28;20568;-60
2023/12/12 00:10:09;;;;;;;34.63;18.15;;;;;;;12.83;100.00;100367.13;5074394;28;20051;-61
2023/12/12 00:12:36;;;;;;;34.80;18.38;;;;;;;12.89;100.00;100374.09;5093962;28;20071;-60
2023/12/12 00:15:04;;;;;;;35.47;18.58;;;;;;;12.90;100.00;100370.16;5109677;28;20051;-60
2023/12/12 00:17:31;;;;;;;34.13;18.35;;;;;;;12.81;100.00;100369.44;5096828;28;20070;-60
2023/12/12 00:20:00;;;;;;;36.17;17.90;;;;;;;12.87;100.00;100368.06;5093842;28;20051;-60
2023/12/12 00:22:27;;;;;;;33.67;17.92;;;;;;;13.08;100.00;100359.81;5064022;28;20056;-60
2023/12/12 00:24:54;;;;;;;37.30;17.85;;;;;;;13.12;100.00;100356.03;5074935;28;20264;-61
2023/12/12 00:27:21;;;;;;;36.63;19.17;;;;;;;13.06;100.00;100338.03;5090487;28;20425;-61
2023/12/12 00:29:49;;;;;;;34.95;17.80;;;;;;;13.03;100.00;100344.25;5114430;28;20054;-61
2023/12/12 00:32:16;;;;;;;34.78;18.77;;;;;;;12.93;100.00;100352.09;5114266;28;20059;-61
2023/12/12 00:34:43;;;;;;;35.10;17.75;;;;;;;12.89;100.00;100348.38;5114476;28;20060;-61
2023/12/12 00:37:10;;;;;;;32.03;17.95;;;;;;;12.98;100.00;100336.13;5083318;28;20498;-60
2023/12/12 00:39:41;;;;;;;32.72;17.95;;;;;;;13.14;100.00;100336.34;5098614;28;20051;-61
2023/12/12 00:42:08;;;;;;;30.73;17.63;;;;;;;13.31;100.00;100334.22;5075092;28;20499;-61
2023/12/12 00:44:36;;;;;;;34.78;18.02;;;;;;;13.14;100.00;100325.28;5091948;28;20056;-62
2023/12/12 00:47:05;;;;;;;35.97;17.75;;;;;;;13.12;100.00;100322.03;5077660;28;20047;-61
2023/12/12 00:49:32;;;;;;;30.48;17.60;;;;;;;13.15;100.00;100322.16;5093449;28;20054;-60
2023/12/12 00:52:01;;;;;;;33.78;18.13;;;;;;;13.33;100.00;100306.22;5110450;28;20047;-61
2023/12/12 00:54:28;;;;;;;35.65;18.60;;;;;;;13.06;100.00;100307.59;5076136;28;20052;-60
2023/12/12 00:56:55;;;;;;;36.70;18.05;;;;;;;13.14;100.00;100312.25;5093504;28;20356;-62
2023/12/12 00:59:23;;;;;;;29.30;17.58;;;;;;;13.03;100.00;100305.53;5058338;28;20063;-62
2023/12/12 01:01:50;;;;;;;29.83;18.15;;;;;;;12.96;100.00;100305.22;5057334;28;20048;-62
2023/12/12 01:04:17;;;;;;;26.70;17.08;;;;;;;13.11;100.00;100296.34;5083964;28;20051;-60
2023/12/12 01:06:45;;;;;;;32.00;17.00;;;;;;;13.19;100.00;100295.47;5111416;28;20048;-59
2023/12/12 01:09:12;;;;;;;29.17;17.40;;;;;;;13.08;100.00;100304.50;5092810;28;20052;-60
2023/12/12 01:11:39;;;;;;;30.48;16.65;;;;;;;12.89;100.00;100304.16;5093097;28;20059;-60
2023/12/12 01:14:07;;;;;;;27.20;15.68;;;;;;;12.98;100.00;100293.84;5092986;28;20040;-62
2023/12/12 01:16:34;;;;;;;25.13;16.52;;;;;;;13.10;100.00;100300.25;5112230;28;20605;-61
2023/12/12 01:19:02;;;;;;;31.20;16.23;;;;;;;13.08;100.00;100294.25;5083333;28;20403;-61
2023/12/12 01:21:29;;;;;;;26.00;16.42;;;;;;;13.08;100.00;100290.69;5074916;28;20059;-60
2023/12/12 01:23:57;;;;;;;26.98;16.20;;;;;;;13.12;100.00;100283.31;5092598;28;20067;-60
2023/12/12 01:26:25;;;;;;;26.42;15.68;;;;;;;13.11;100.00;100282.50;5073302;28;20419;-62
2023/12/12 01:28:52;;;;;;;24.73;15.25;;;;;;;13.09;100.00;100281.25;5076726;28;20055;-61
2023/12/12 01:31:19;;;;;;;25.23;14.43;;;;;;;13.12;100.00;100283.31;5094959;28;20059;-59
2023/12/12 01:33:47;;;;;;;25.58;15.98;;;;;;;13.20;100.00;100265.81;5112816;28;20066;-60
2023/12/12 01:36:15;;;;;;;24.45;15.25;;;;;;;13.14;100.00;100264.44;5095350;28;20058;-60
2023/12/12 01:38:44;;;;;;;22.60;15.18;;;;;;;13.28;100.00;100276.81;5111026;28;20044;-61
2023/12/12 01:41:11;;;;;;;24.92;15.13;;;;;;;13.18;100.00;100263.41;5092987;28;20056;-60
2023/12/12 01:43:38;;;;;;;23.10;14.73;;;;;;;13.22;100.00;100266.28;5074518;28;20414;-61
2023/12/12 01:46:06;;;;;;;22.13;15.18;;;;;;;13.20;100.00;100272.16;5092548;28;20056;-60
2023/12/12 01:48:34;;;;;;;25.13;14.32;;;;;;;13.04;100.00;100268.44;5111636;27;20370;-60
2023/12/12 01:51:01;;;;;;;23.75;15.20;;;;;;;13.13;100.00;100266.38;5124710;27;20491;-61
2023/12/12 01:53:39;;;;;;;24.65;14.60;;;;;;;13.11;100.00;100262.38;5094133;28;20078;-61
2023/12/12 01:56:06;;;;;;;21.88;14.80;;;;;;;13.13;100.00;100276.63;5060467;28;20379;-61
2023/12/12 01:58:36;;;;;;;21.67;14.50;;;;;;;13.22;100.00;100275.41;5077092;28;20055;-60
2023/12/12 02:01:03;;;;;;;19.67;13.13;;;;;;;13.22;100.00;100272.63;5112824;28;20048;-61
2023/12/12 02:03:31;;;;;;;21.95;13.70;;;;;;;13.16;100.00;100248.31;5093668;28;20044;-60
2023/12/12 02:05:59;;;;;;;19.52;13.13;;;;;;;13.17;100.00;100250.75;5077735;28;20067;-60
2023/12/12 02:08:26;;;;;;;23.45;11.65;;;;;;;13.17;100.00;100255.44;5078054;28;20052;-61
2023/12/12 02:10:54;;;;;;;14.70;10.00;;;;;;;13.18;100.00;100255.09;5091997;28;20055;-60
2023/12/12 02:13:21;;;;;;;20.05;9.80;;;;;;;13.27;100.00;100255.00;5074204;28;20059;-60
2023/12/12 02:15:49;;;;;;;16.67;10.55;;;;;;;13.32;100.00;100252.00;5105081;28;20066;-61
2023/12/12 02:18:16;;;;;;;14.95;8.35;;;;;;;13.32;100.00;100239.00;5090320;28;20051;-60
2023/12/12 02:20:43;;;;;;;14.63;8.23;;;;;;;13.57;100.00;100226.00;5092225;28;20063;-61
2023/12/12 02:23:11;;;;;;;11.88;7.55;;;;;;;13.67;100.00;100225.53;5074102;28;20151;-60
2023/12/12 02:25:40;;;;;;;17.45;8.77;;;;;;;13.61;100.00;100226.13;5067228;28;20052;-60
2023/12/12 02:28:10;;;;;;;16.13;9.00;;;;;;;13.56;100.00;100221.63;5094282;28;20047;-61
2023/12/12 02:30:37;;;;;;;13.65;8.27;;;;;;;13.60;100.00;100224.53;5093214;28;20052;-61
2023/12/12 02:33:04;;;;;;;16.95;10.18;;;;;;;13.45;100.00;100217.69;5115388;28;20050;-61
2023/12/12 02:35:32;;;;;;;16.48;10.63;;;;;;;13.42;100.00;100229.47;5116906;28;20052;-60
2023/12/12 02:37:59;;;;;;;17.25;10.63;;;;;;;13.43;100.00;100215.28;5116170;28;20047;-60
2023/12/12 02:40:27;;;;;;;15.70;9.93;;;;;;;13.46;100.00;100211.00;5062614;28;20611;-60
2023/12/12 02:42:54;;;;;;;19.83;11.65;;;;;;;13.51;100.00;100206.06;5095380;28;20055;-60
2023/12/12 02:45:21;;;;;;;19.13;11.48;;;;;;;13.36;100.00;100197.63;5099134;27;20051;-61
2023/12/12 02:47:49;;;;;;;17.70;11.15;;;;;;;13.28;100.00;100185.53;5091356;28;20036;-60
2023/12/12 02:50:17;;;;;;;20.02;11.35;;;;;;;13.30;100.00;100176.91;5079461;28;20051;-61
2023/12/12 02:52:47;;;;;;;18.58;11.60;;;;;;;13.26;100.00;100170.44;5080603;28;20055;-60
2023/12/12 02:55:14;;;;;;;15.95;11.70;;;;;;;13.37;100.00;100166.06;5115236;28;20048;-60
2023/12/12 02:57:41;;;;;;;18.95;11.30;;;;;;;13.19;100.00;100161.91;5096646;28;20062;-60
2023/12/12 03:00:09;;;;;;;18.20;10.73;;;;;;;13.04;100.00;100151.50;5095369;28;20655;-61
2023/12/12 03:02:36;;;;;;;18.67;11.23;;;;;;;13.06;100.00;100147.25;5114344;28;20052;-61
2023/12/12 03:05:04;;;;;;;21.65;11.38;;;;;;;13.04;100.00;100145.97;5114778;28;20040;-61
2023/12/12 03:07:32;;;;;;;21.75;11.80;;;;;;;13.00;100.00;100145.84;5105748;28;20044;-59
2023/12/12 03:10:00;;;;;;;19.85;11.52;;;;;;;12.92;100.00;100154.22;5094213;28;20063;-61
2023/12/12 03:12:27;;;;;;;18.95;11.00;;;;;;;12.87;100.00;100152.47;5094372;28;20047;-61
2023/12/12 03:14:54;;;;;;;18.50;11.52;;;;;;;12.91;100.00;100161.72;5064424;28;20058;-60
2023/12/12 03:17:21;;;;;;;21.60;11.07;;;;;;;12.81;100.00;100155.81;5097225;28;20510;-61
2023/12/12 03:19:50;;;;;;;16.83;11.02;;;;;;;12.86;100.00;100150.88;5097538;28;20407;-60
2023/12/12 03:22:17;;;;;;;22.58;10.23;;;;;;;12.86;100.00;100145.34;5095178;28;20054;-60
2023/12/12 03:24:44;;;;;;;14.98;10.38;;;;;;;12.98;100.00;100139.84;5097509;28;20063;-60
2023/12/12 03:27:12;;;;;;;15.02;9.35;;;;;;;12.99;100.00;100121.31;5115327;28;20048;-60
2023/12/12 03:29:39;;;;;;;17.48;9.32;;;;;;;13.01;100.00;100113.44;5096805;28;20047;-61
2023/12/12 03:32:06;;;;;;;19.77;9.77;;;;;;;12.91;100.00;100109.19;5063129;28;20063;-60
2023/12/12 03:34:33;;;;;;;16.00;9.60;;;;;;;12.73;100.00;100113.28;5115347;28;20052;-61
2023/12/12 03:37:01;;;;;;;18.80;9.20;;;;;;;12.89;100.00;100111.47;5115273;28;20044;-60
2023/12/12 03:39:28;;;;;;;22.30;9.02;;;;;;;12.69;100.00;100117.91;5106574;28;20043;-61
2023/12/12 03:41:55;;;;;;;17.40;9.07;;;;;;;12.57;100.00;100104.03;5098317;28;20047;-60
2023/12/12 03:44:23;;;;;;;17.67;8.10;;;;;;;12.71;100.00;100099.00;5076730;28;20067;-60
2023/12/12 03:46:50;;;;;;;18.70;8.32;;;;;;;12.72;100.00;100099.81;5093475;28;20048;-60
2023/12/12 03:49:17;;;;;;;15.90;8.10;;;;;;;12.76;100.00;100087.72;5096907;28;20172;-60
2023/12/12 03:51:45;;;;;;;14.57;7.85;;;;;;;12.88;100.00;100082.25;5115232;28;20059;-60
2023/12/12 03:54:12;;;;;;;14.88;7.15;;;;;;;12.97;100.00;100084.91;5115566;28;20538;-60
2023/12/12 03:56:39;;;;;;;14.32;6.65;;;;;;;13.07;100.00;100073.41;5080284;28;20051;-61
2023/12/12 03:59:06;;;;;;;11.07;6.85;;;;;;;13.20;100.00;100072.22;5096799;28;20103;-60
2023/12/12 04:01:33;;;;;;;18.80;6.47;;;;;;;13.03;100.00;100078.00;5114983;28;20055;-60
2023/12/12 04:04:01;;;;;;;14.90;6.20;;;;;;;12.94;100.00;100069.78;5096727;28;20043;-60
2023/12/12 04:06:28;;;;;;;10.05;5.47;;;;;;;12.94;100.00;100075.31;5087971;28;20044;-60
2023/12/12 04:08:55;;;;;;;14.30;6.22;;;;;;;12.99;100.00;100069.56;5076250;28;20044;-60
2023/12/12 04:11:23;;;;;;;16.33;5.57;;;;;;;12.93;100.00;100068.19;5072458;28;20064;-60
2023/12/12 04:13:51;;;;;;;19.65;6.70;;;;;;;13.02;100.00;100077.19;5074155;28;20071;-60
2023/12/12 04:16:18;;;;;;;16.80;6.05;;;;;;;13.05;100.00;100071.00;5088929;28;20377;-60
2023/12/12 04:18:45;;;;;;;15.30;6.20;;;;;;;13.03;100.00;100064.19;5076151;28;20435;-60
2023/12/12 04:21:13;;;;;;;14.23;6.50;;;;;;;13.04;100.00;100061.06;5093997;28;20052;-60
2023/12/12 04:23:42;;;;;;;11.25;6.75;;;;;;;13.09;100.00;100055.31;5094083;28;20570;-59
2023/12/12 04:26:10;;;;;;;;;;;;;;;12.95;100.00;100056.78;5094352;28;20055;-60
2023/12/12 04:28:38;;;;;;;14.65;7.85;;;;;;;12.95;100.00;100048.50;5084192;28;19935;-60
2023/12/12 04:31:05;;;;;;;13.00;7.25;;;;;;;12.99;100.00;100049.41;5088102;28;20429;-61
2023/12/12 04:33:32;;;;;;;14.00;8.57;;;;;;;12.90;100.00;100048.72;5083426;28;20055;-59
2023/12/12 04:36:01;;;;;;;16.08;8.90;;;;;;;13.14;100.00;100054.28;5074621;28;20059;-61
2023/12/12 04:38:28;;;;;;;16.70;8.98;;;;;;;13.08;100.00;100052.88;5087660;28;20048;-60
2023/12/12 04:40:55;;;;;;;14.15;9.25;;;;;;;13.15;100.00;100051.16;5093628;28;20048;-59
2023/12/12 04:43:22;;;;;;;14.10;8.65;;;;;;;13.28;100.00;100027.88;5093076;28;20705;-61
2023/12/12 04:45:50;;;;;;;12.88;9.35;;;;;;;13.22;100.00;100023.72;5074518;28;20064;-60
2023/12/12 04:48:17;;;;;;;15.18;8.95;;;;;;;13.29;100.00;100029.50;5092139;28;20040;-60
2023/12/12 04:50:44;;;;;;;16.95;9.15;;;;;;;13.16;100.00;100036.16;5092496;28;20059;-60
2023/12/12 04:53:12;;;;;;;15.20;8.75;;;;;;;13.31;100.00;100043.78;5091877;28;20410;-60
2023/12/12 04:55:39;;;;;;;13.43;8.75;;;;;;;13.35;100.00;100027.28;5089207;28;20055;-60
2023/12/12 04:58:06;;;;;;;14.05;9.40;;;;;;;13.26;100.00;100029.38;5091588;28;20051;-60
2023/12/12 05:00:33;;;;;;;13.40;8.75;;;;;;;13.27;100.00;100028.22;5090703;28;20047;-61
2023/12/12 05:03:01;;;;;;;15.05;9.13;;;;;;;13.32;100.00;100019.66;5087357;28;20072;-60
2023/12/12 05:05:28;;;;;;;15.45;9.57;;;;;;;13.45;100.00;100015.75;5090209;28;20055;-61
2023/12/12 05:07:55;;;;;;;16.40;9.25;;;;;;;13.39;100.00;100015.16;5092335;28;20095;-60
2023/12/12 05:10:23;;;;;;;14.13;9.07;;;;;;;13.30;100.00;100011.72;5089425;28;20051;-61
2023/12/12 05:12:50;;;;;;;14.73;9.52;;;;;;;13.20;100.00;100014.16;5106990;28;20454;-61
2023/12/12 05:15:17;;;;;;;15.63;9.23;;;;;;;13.27;100.00;100020.72;5112297;28;20051;-62
2023/12/12 05:17:46;;;;;;;14.38;9.93;;;;;;;13.32;100.00;100022.44;5103901;28;20419;-60
2023/12/12 05:20:13;;;;;;;15.40;9.38;;;;;;;13.44;100.00;100014.94;5092613;28;20066;-60
2023/12/12 05:22:41;;;;;;;14.63;9.90;;;;;;;13.39;100.00;100025.41;5073482;28;20054;-60
2023/12/12 05:25:08;;;;;;;18.80;11.27;;;;;;;13.39;100.00;100006.88;5060489;28;20478;-59
2023/12/12 05:27:36;;;;;;;15.98;10.43;;;;;;;13.52;100.00;99996.59;5110182;28;20271;-60
2023/12/12 05:30:04;;;;;;;13.95;10.90;;;;;;;13.51;100.00;100000.53;5094659;28;20056;-60
2023/12/12 05:32:32;;;;;;;17.15;11.82;;;;;;;13.39;100.00;99997.75;5093448;28;20586;-59
2023/12/12 05:34:59;;;;;;;19.50;12.80;;;;;;;13.24;100.00;99999.31;5109163;28;20050;-60
2023/12/12 05:37:26;;;;;;;15.82;12.05;;;;;;;13.24;100.00;99999.31;5112865;28;20494;-61
2023/12/12 05:39:54;;;;;;;19.33;12.13;;;;;;;13.42;100.00;99997.88;5094870;28;20052;-61
2023/12/12 05:42:21;;;;;;;18.80;12.57;;;;;;;13.34;100.00;99998.00;5112577;28;20505;-61
2023/12/12 05:44:48;;;;;;;16.38;12.77;;;;;;;13.47;100.00;99992.13;5094815;28;20048;-61
2023/12/12 05:47:16;;;;;;;19.88;12.30;;;;;;;13.39;100.00;99998.56;5093698;28;20051;-60
2023/12/12 05:49:43;;;;;;;19.50;12.30;;;;;;;13.41;100.00;99998.22;5112878;28;20040;-65
2023/12/12 05:52:10;;;;;;;17.40;13.07;;;;;;;13.23;100.00;99997.69;5077487;28;20526;-60
2023/12/12 05:54:38;;;;;;;19.95;13.10;;;;;;;13.25;100.00;99994.59;5093491;28;20056;-61
2023/12/12 05:57:05;;;;;;;20.27;12.48;;;;;;;13.35;100.00;99981.06;5077925;28;20062;-60
2023/12/12 05:59:33;;;;;;;15.95;12.40;;;;;;;13.31;100.00;99985.69;5112377;28;20036;-61
2023/12/12 06:02:00;;;;;;;16.88;12.93;;;;;;;13.27;100.00;99976.47;5093492;28;20047;-61
2023/12/12 06:04:28;;;;;;;18.42;13.20;;;;;;;13.28;100.00;99974.53;5094469;28;20051;-60
2023/12/12 06:06:55;;;;;;;18.48;13.82;;;;;;;13.12;100.00;99982.75;5069302;28;20047;-61
2023/12/12 06:09:22;;;;;;;17.63;13.50;;;;;;;13.23;100.00;99981.09;5096996;28;20055;-61
2023/12/12 06:11:49;;;;;;;17.52;13.40;;;;;;;13.29;100.00;99987.19;5076505;28;20056;-60
2023/12/12 06:14:17;;;;;;;18.90;13.80;;;;;;;13.24;100.00;99979.13;5096359;28;20051;-60
2023/12/12 06:16:44;;;;;;;17.08;12.85;;;;;;;13.51;100.00;99973.63;5092277;28;20055;-61
2023/12/12 06:19:12;;;;;;;16.83;12.95;;;;;;;13.44;100.00;99962.38;5089311;28;20039;-61
2023/12/12 06:21:39;;;;;;;18.50;12.90;;;;;;;13.49;100.00;99958.56;5116326;28;20524;-60
2023/12/12 06:24:07;;;;;;;19.15;13.80;;;;;;;13.45;100.00;99955.69;5116888;28;20040;-61
2023/12/12 06:26:37;;;;;;;21.63;14.60;;;;;;;13.53;100.00;99951.16;5080367;28;20067;-60
2023/12/12 06:29:07;;;;;;;20.90;13.60;;;;;;;13.49;100.00;99953.03;5116191;28;20231;-60
2023/12/12 06:31:34;;;;;;;;;;;;;;;13.32;100.00;99967.94;5117000;28;20051;-61
2023/12/12 06:34:01;;;;;;;17.77;12.77;;;;;;;13.42;100.00;99952.81;5081416;28;19927;-60
2023/12/12 06:36:29;;;;;;;20.48;14.07;;;;;;;13.43;100.00;99958.00;5098391;28;20058;-60
2023/12/12 06:38:56;;;;;;;17.85;13.32;;;;;;;13.39;100.00;99959.84;5098444;28;20047;-62
2023/12/12 06:41:24;;;;;;;21.00;13.30;;;;;;;13.37;100.00;99959.38;5116459;28;20048;-62
2023/12/12 06:43:51;;;;;;;19.35;12.55;;;;;;;13.41;100.00;99960.31;5116627;28;20048;-61
2023/12/12 06:46:18;;;;;;;16.67;11.80;;;;;;;13.54;100.00;99953.59;5092331;28;20047;-61
2023/12/12 06:48:47;;;;;;;20.20;13.27;;;;;;;13.61;100.00;99955.75;5076782;28;20450;-61
2023/12/12 06:51:14;;;;;;;17.65;12.75;;;;;;;13.58;100.00;99948.94;5115878;28;20048;-60
2023/12/12 06:53:41;;;;;;;18.75;12.30;;;;;;;13.58;100.00;99943.41;5115922;28;20048;-62
2023/12/12 06:56:09;;;;;;;15.98;11.82;;;;;;;13.44;100.00;99948.53;5115892;28;20043;-61
2023/12/12 06:58:36;;;;;;;14.68;11.02;;;;;;;13.50;100.00;99947.13;5115803;28;20050;-60
2023/12/12 07:01:03;;;;;;;16.40;11.40;;;;;;;13.53;100.00;99956.69;5116310;28;20058;-60
2023/12/12 07:03:31;;;;;;;19.98;11.77;;;;;;;13.48;100.00;99968.00;5112733;28;20044;-62
2023/12/12 07:05:58;;;;;;;18.70;12.65;;;;;;;13.48;100.00;99971.59;5081460;28;20047;-61
2023/12/12 07:08:25;;;;;;;18.10;12.95;;;;;;;13.60;100.00;99973.50;5097419;28;20070;-61
2023/12/12 07:10:52;;;;;;;16.88;12.05;;;;;;;13.67;100.00;99975.69;5115556;28;20043;-63
2023/12/12 07:13:20;;;;;;;15.45;11.43;;;;;;;13.72;100.00;99972.66;5115561;28;20059;-62
2023/12/12 07:15:48;;;;;;;15.45;11.82;;;;;;;13.77;100.00;99973.22;5097569;28;20051;-62
2023/12/12 07:18:15;;;;;;;18.42;11.88;;;;;;;13.65;100.00;99973.25;5114449;28;20052;-62
2023/12/12 07:20:44;;;;;;;15.95;10.20;;;;;;;13.66;100.00;99980.41;5097458;28;20344;-60
2023/12/12 07:23:11;;;;;;;15.82;10.65;;;;;;;13.72;100.00;99981.75;5076809;28;20040;-61
2023/12/12 07:25:42;;;;;;;13.20;10.05;;;;;;;13.78;100.00;99976.78;5081049;28;20058;-60
2023/12/12 07:28:23;;;;;;;16.17;12.25;;;;;;;13.77;100.00;99978.75;5115255;28;20048;-60
2023/12/12 07:31:05;;;;;;;12.40;8.80;;;;;;;13.83;100.00;99968.22;5063516;28;20438;-61
2023/12/12 07:33:36;;;;;;;11.77;8.23;;;;;;;13.91;100.00;99978.34;5087898;28;20052;-61
2023/12/12 07:36:03;;;;;;;7.95;5.68;;;;;;;13.96;100.00;99978.91;5094695;28;20074;-62
2023/12/12 07:38:30;;;;;;;10.82;5.80;;;;;;;13.92;100.00;99977.16;5060705;28;20048;-61
2023/12/12 07:40:59;;;;;;;8.07;5.45;;;;;;;13.79;100.00;99972.88;5096275;28;20459;-61
2023/12/12 07:43:26;;;;;;;7.18;4.90;;;;;;;14.09;100.00;99972.13;5109030;28;20048;-61
2023/12/12 07:45:54;;;;;;;7.78;4.22;;;;;;;13.92;100.00;99966.09;5096969;28;20502;-61
2023/12/12 07:48:21;;;;;;;8.13;3.92;;;;;;;14.08;100.00;99972.47;5051411;28;20063;-61
2023/12/12 07:50:49;;;;;;;8.85;3.83;;;;;;;14.04;100.00;99975.16;5096846;28;20052;-61
2023/12/12 07:53:17;;;;;;;7.22;3.38;;;;;;;14.25;100.00;99967.41;5096274;28;20048;-61
2023/12/12 07:55:45;;;;;;;6.60;3.75;;;;;;;14.25;100.00;99974.91;5115684;28;20055;-62
2023/12/12 07:58:12;;;;;;;6.57;4.35;;;;;;;14.26;100.00;99971.81;5080135;28;20089;-61
2023/12/12 08:00:39;;;;;;;5.50;3.42;;;;;;;14.02;100.00;99966.38;5114891;28;20533;-60
2023/12/12 08:03:08;;;;;;;10.10;3.30;;;;;;;14.07;100.00;99963.34;5100509;28;20061;-61
2023/12/12 08:05:37;;;;;;;4.80;2.80;;;;;;;14.34;100.00;99978.34;5090350;28;20384;-61
2023/12/12 08:08:06;;;;;;;11.68;5.22;;;;;;;14.42;100.00;99980.13;5109885;28;20059;-61
2023/12/12 08:10:35;;;;;;;4.40;2.60;;;;;;;14.38;100.00;99970.94;5094535;28;20048;-61
2023/12/12 08:13:03;;;;;;;6.70;2.70;;;;;;;14.38;100.00;99963.41;5094186;28;20063;-60
2023/12/12 08:15:30;;;;;;;5.10;2.30;;;;;;;14.24;100.00;99962.22;5104610;28;20051;-61
2023/12/12 08:17:57;;;;;;;5.13;2.50;;;;;;;14.27;100.00;99956.00;5111954;28;20054;-61
2023/12/12 08:20:25;;;;;;;9.55;2.60;;;;;;;14.37;100.00;99959.06;5076127;28;20052;-61
2023/12/12 08:22:52;;;;;;;5.53;2.80;;;;;;;14.25;100.00;99959.09;5097735;28;20056;-60
2023/12/12 08:25:21;;;;;;;8.65;2.10;;;;;;;14.41;100.00;99951.63;5079932;28;20158;-61
2023/12/12 08:27:48;;;;;;;7.85;2.17;;;;;;;14.56;100.00;99950.81;5112730;28;20070;-62
2023/12/12 08:30:16;;;;;;;5.22;1.67;;;;;;;14.86;100.00;99958.66;5113765;28;20044;-60
2023/12/12 08:32:43;;;;;;;4.47;1.70;;;;;;;14.64;100.00;99960.91;5114620;28;20047;-61
2023/12/12 08:35:11;;;;;;;6.20;1.90;;;;;;;14.68;100.00;99963.78;5079343;28;20058;-61
2023/12/12 08:37:38;;;;;;;5.95;1.40;;;;;;;14.71;100.00;99965.84;5114324;28;20051;-61
2023/12/12 08:40:07;;;;;;;4.78;2.70;;;;;;;14.66;100.00;99958.59;5096177;28;20050;-62
2023/12/12 08:42:34;;;;;;;8.60;5.90;;;;;;;14.68;100.00;99966.53;5114677;28;20051;-62
2023/12/12 08:45:02;;;;;;;4.38;1.85;;;;;;;14.52;100.00;99965.78;5114217;28;20066;-59
2023/12/12 08:47:30;;;;;;;5.65;1.60;;;;;;;14.71;100.00;99965.03;5113960;28;20043;-61
2023/12/12 08:49:59;;;;;;;3.67;1.60;;;;;;;14.55;100.00;99967.81;5096286;28;20048;-61
2023/12/12 08:52:26;;;;;;;5.80;1.65;;;;;;;14.54;100.00;99978.09;5114473;28;20059;-63
2023/12/12 08:54:54;;;;;;;5.28;1.58;;;;;;;14.39;100.00;99973.34;5095992;28;20418;-61
2023/12/12 08:57:21;;;;;;;4.60;1.50;;;;;;;14.55;100.00;99974.16;5114018;28;20608;-61
2023/12/12 08:59:48;;;;;;;5.43;2.00;;;;;;;14.51;100.00;99973.25;5113734;28;20047;-62
2023/12/12 09:02:17;;;;;;;7.10;1.95;;;;;;;14.41;100.00;99973.81;5113929;28;20078;-61
2023/12/12 09:04:44;;;;;;;9.60;2.17;;;;;;;14.52;100.00;99963.78;5101282;28;20056;-61
2023/12/12 09:07:11;;;;;;;4.65;1.60;;;;;;;14.58;100.00;99969.88;5107153;28;20082;-62
2023/12/12 09:09:38;;;;;;;6.18;1.83;;;;;;;14.75;100.00;99965.94;5113921;28;20502;-59
2023/12/12 09:12:08;;;;;;;5.78;1.35;;;;;;;14.74;100.00;99964.31;5113852;28;20283;-60
2023/12/12 09:14:35;;;;;;;5.30;1.33;;;;;;;14.75;100.00;99963.16;5076197;28;20071;-60
2023/12/12 09:17:03;;;;;;;3.92;1.27;;;;;;;14.51;100.00;99958.59;5104688;28;20461;-62
2023/12/12 09:19:31;;;;;;;7.20;1.58;;;;;;;14.54;100.00;99963.41;5100815;28;20082;-62
2023/12/12 09:21:59;;;;;;;5.57;1.40;;;;;;;14.53;100.00;99957.09;5093269;28;20387;-62
2023/12/12 09:24:27;;;;;;;3.80;1.00;;;;;;;14.63;100.00;99958.50;5093287;28;20451;-60
2023/12/12 09:26:55;;;;;;;5.70;1.35;;;;;;;14.80;100.00;99960.94;5078768;28;20052;-61
2023/12/12 09:29:22;;;;;;;3.67;1.30;;;;;;;14.85;100.00;99957.88;5078513;28;20545;-63
2023/12/12 09:31:49;;;;;;;4.88;1.55;;;;;;;14.85;100.00;99957.88;5113531;28;20410;-61
2023/12/12 09:34:17;;;;;;;4.35;1.33;;;;;;;14.86;100.00;99965.00;5095515;28;20059;-61
2023/12/12 09:36:44;;;;;;;6.15;1.42;;;;;;;14.98;100.00;99959.34;5113580;28;20494;-61
2023/12/12 09:39:12;;;;;;;2.72;0.95;;;;;;;14.97;100.00;99968.84;5106430;28;20067;-61
2023/12/12 09:41:40;;;;;;;7.28;1.50;;;;;;;14.82;100.00;99966.88;5093288;28;20597;-60
2023/12/12 09:44:08;;;;;;;5.18;1.60;;;;;;;14.94;100.00;99963.22;5074538;28;20067;-60
2023/12/12 09:46:36;;;;;;;3.38;1.27;;;;;;;14.89;100.00;99969.84;5093012;28;20044;-61
2023/12/12 09:49:06;;;;;;;3.30;1.38;;;;;;;14.92;100.00;99963.59;5093878;28;20059;-60
2023/12/12 09:51:34;;;;;;;3.10;1.50;;;;;;;14.82;100.00;99958.56;5095652;28;20047;-62
2023/12/12 09:54:06;;;;;;;3.60;1.85;;;;;;;14.91;100.00;99963.91;5078377;28;20058;-61
2023/12/12 09:56:36;;;;;;;4.63;2.10;;;;;;;14.84;100.00;99956.25;5095766;28;20059;-62
2023/12/12 09:59:07;;;;;;;4.90;1.90;;;;;;;15.04;100.00;99946.84;5113234;28;20054;-61
2023/12/12 10:01:35;;;;;;;5.38;1.58;;;;;;;15.10;100.00;99956.47;5077865;28;20047;-61
2023/12/12 10:04:05;;;;;;;4.22;1.13;;;;;;;15.20;100.00;99955.88;5112957;28;20047;-61
2023/12/12 10:06:35;;;;;;;;;;;;;;;15.08;100.00;99958.00;5087754;28;20047;-61
2023/12/12 10:09:02;;;;;;;4.22;1.23;;;;;;;15.02;100.00;99953.88;5051040;28;19924;-60
2023/12/12 10:11:29;;;;;;;6.57;1.60;;;;;;;15.10;99.55;99956.47;5074486;28;20040;-62
2023/12/12 10:13:58;;;;;;;4.82;1.40;;;;;;;15.09;98.65;99937.41;5092730;28;20052;-60
2023/12/12 10:16:26;;;;;;;4.93;1.55;;;;;;;14.92;98.26;99940.59;5112203;28;20051;-60
2023/12/12 10:18:54;;;;;;;4.95;1.23;;;;;;;15.09;98.01;99942.97;5062693;28;20060;-61
2023/12/12 10:21:23;;;;;;;9.13;1.63;;;;;;;15.17;97.13;99933.63;5075460;28;20059;-62
2023/12/12 10:23:51;;;;;;;5.68;1.65;;;;;;;15.16;96.78;99932.03;5112156;28;20043;-60
2023/12/12 10:26:29;;;;;;;5.93;1.55;;;;;;;15.05;96.06;99933.75;5103253;28;20047;-61
2023/12/12 10:28:58;;;;;;;6.70;1.27;;;;;;;14.97;96.01;99934.75;5094561;28;20044;-60
2023/12/12 10:31:26;;;;;;;5.28;1.50;;;;;;;15.20;96.07;99919.81;5112479;28;20043;-60
2023/12/12 10:33:55;;;;;;;8.73;1.88;;;;;;;15.31;94.83;99920.06;5112427;28;20063;-60
2023/12/12 10:36:24;;;;;;;7.63;1.70;;;;;;;15.30;93.07;99916.50;5077855;28;20546;-61
2023/12/12 10:38:53;;;;;;;6.50;1.40;;;;;;;15.24;92.72;99917.94;5074209;28;20555;-61
2023/12/12 10:41:21;;;;;;;6.00;1.60;;;;;;;15.34;93.03;99920.13;5107468;28;20055;-62
2023/12/12 10:43:53;;;;;;;14.63;6.47;;;;;;;15.49;92.06;99930.41;5112440;28;20056;-60
2023/12/12 10:46:22;;;;;;;8.13;1.90;;;;;;;15.30;91.93;99921.22;5094391;28;20158;-60
2023/12/12 10:48:52;;;;;;;8.95;1.70;;;;;;;15.33;91.75;99906.63;5095514;28;20051;-59
2023/12/12 10:51:20;;;;;;;8.63;2.58;;;;;;;15.28;91.62;99918.03;5074432;28;20048;-60
2023/12/12 10:53:51;;;;;;;11.18;1.83;;;;;;;15.34;91.54;99917.34;5092902;28;20044;-60
2023/12/12 10:56:19;;;;;;;5.13;1.50;;;;;;;15.39;91.66;99917.09;5060021;28;20060;-63
2023/12/12 10:58:48;;;;;;;9.57;2.47;;;;;;;15.33;90.87;99904.66;5094401;28;20058;-60
2023/12/12 11:01:21;;;;;;;5.35;1.90;;;;;;;15.42;90.79;99907.25;5095504;28;20052;-61
2023/12/12 11:03:50;;;;;;;6.95;1.67;;;;;;;15.35;90.83;99904.28;5066225;28;20063;-61
2023/12/12 11:06:19;;;;;;;9.95;2.08;;;;;;;15.11;92.32;99897.06;5095437;28;20055;-60
2023/12/12 11:08:46;;;;;;;9.93;2.90;;;;;;;15.23;92.15;99902.47;5062479;28;20055;-62
2023/12/12 11:11:13;;;;;;;10.82;4.70;;;;;;;15.32;91.82;99905.03;5097907;28;20060;-60
2023/12/12 11:13:43;;;;;;;10.45;2.40;;;;;;;15.19;92.07;99896.03;5095836;28;20048;-61
2023/12/12 11:16:11;;;;;;;7.10;2.30;;;;;;;15.17;91.72;99900.31;5111692;28;20125;-61